Time,TemperatureF,DewpointF,PressureIn,WindDirection,WindDirectionDegrees,WindSpeedMPH,WindSpeedGustMPH,Humidity,HourlyPrecipIn,Conditions,Clouds,dailyrainin,SoftwareType,DateUTC
2013-03-04 00:14:00,49.5,46.0,30.01,NE,45,1.0,3.0,88,0.00,,,0.00,meteohub,2013-03-03 23:14:00,
2013-03-04 00:31:00,49.6,46.2,30.00,East,90,3.0,6.0,88,0.00,,,0.00,meteohub,2013-03-03 23:31:00,
2013-03-04 00:47:00,49.6,46.2,30.00,ENE,68,2.0,6.0,88,0.00,,,0.00,meteohub,2013-03-03 23:47:00,
2013-03-04 01:02:00,49.6,46.2,29.99,NE,45,4.0,8.0,88,0.00,,,0.00,meteohub,2013-03-04 00:02:00,
2013-03-04 01:17:00,49.5,46.0,29.99,ENE,68,4.0,9.0,88,0.00,,,0.00,meteohub,2013-03-04 00:17:00,
2013-03-04 01:33:00,49.1,46.0,29.99,ENE,68,5.0,8.0,89,0.00,,,0.00,meteohub,2013-03-04 00:33:00,
2013-03-04 01:49:00,48.9,45.9,29.99,ENE,68,2.0,7.0,89,0.00,,,0.00,meteohub,2013-03-04 00:49:00,
2013-03-04 02:04:00,48.0,45.1,29.98,East,90,3.0,6.0,90,0.00,,,0.00,meteohub,2013-03-04 01:04:00,
2013-03-04 02:20:00,47.8,45.3,29.98,ENE,68,2.0,4.0,91,0.00,,,0.00,meteohub,2013-03-04 01:20:00,
2013-03-04 02:35:00,47.8,45.3,29.97,NE,45,2.0,5.0,91,0.00,,,0.00,meteohub,2013-03-04 01:35:00,
2013-03-04 02:51:00,47.8,45.3,29.97,East,90,3.0,5.0,91,0.00,,,0.00,meteohub,2013-03-04 01:51:00,
2013-03-04 03:06:00,48.4,45.9,29.96,ENE,68,4.0,7.0,91,0.00,,,0.00,meteohub,2013-03-04 02:06:00,
2013-03-04 03:22:00,48.7,46.2,29.96,ENE,68,3.0,6.0,91,0.00,,,0.00,meteohub,2013-03-04 02:22:00,
2013-03-04 03:37:00,48.9,46.0,29.95,East,90,3.0,6.0,90,0.00,,,0.00,meteohub,2013-03-04 02:37:00,
2013-03-04 03:53:00,48.7,45.9,29.94,ENE,68,2.0,5.0,90,0.00,,,0.00,meteohub,2013-03-04 02:53:00,
2013-03-04 04:08:00,48.9,46.4,29.94,East,90,2.0,5.0,91,0.00,,,0.00,meteohub,2013-03-04 03:08:00,
2013-03-04 04:23:00,49.5,46.6,29.94,ENE,68,3.0,8.0,90,0.00,,,0.00,meteohub,2013-03-04 03:23:00,
2013-03-04 04:39:00,49.5,46.6,29.94,ENE,68,2.0,5.0,90,0.00,,,0.00,meteohub,2013-03-04 03:39:00,
2013-03-04 04:54:00,49.5,46.6,29.94,East,90,2.0,5.0,90,0.00,,,0.00,meteohub,2013-03-04 03:54:00,
2013-03-04 05:09:00,49.5,46.6,29.94,ENE,68,2.0,4.0,90,0.00,,,0.00,meteohub,2013-03-04 04:09:00,
2013-03-04 05:25:00,49.5,46.6,29.94,East,90,2.0,6.0,90,0.00,,,0.00,meteohub,2013-03-04 04:25:00,
2013-03-04 05:41:00,49.5,46.6,29.94,East,90,3.0,5.0,90,0.00,,,0.00,meteohub,2013-03-04 04:41:00,
2013-03-04 05:56:00,49.6,46.9,29.93,ENE,68,2.0,5.0,90,0.00,,,0.00,meteohub,2013-03-04 04:56:00,
2013-03-04 06:12:00,49.6,47.1,29.93,ENE,68,3.0,7.0,91,0.00,,,0.00,meteohub,2013-03-04 05:12:00,
2013-03-04 06:27:00,49.8,47.3,29.93,ENE,68,4.0,6.0,91,0.00,,,0.00,meteohub,2013-03-04 05:27:00,
2013-03-04 06:43:00,49.6,47.1,29.92,ENE,68,5.0,8.0,91,0.00,,,0.00,meteohub,2013-03-04 05:43:00,
2013-03-04 06:59:00,49.6,47.1,29.92,ENE,68,3.0,7.0,91,0.00,,,0.00,meteohub,2013-03-04 05:59:00,
2013-03-04 07:14:00,49.8,47.3,29.92,ENE,68,5.0,8.0,91,0.00,,,0.00,meteohub,2013-03-04 06:14:00,
2013-03-04 07:30:00,49.8,47.3,29.92,ENE,68,5.0,8.0,91,0.00,,,0.00,meteohub,2013-03-04 06:30:00,
2013-03-04 07:45:00,50.2,47.7,29.91,ENE,68,3.0,7.0,91,0.00,,,0.00,meteohub,2013-03-04 06:45:00,
2013-03-04 08:00:00,50.5,48.0,29.91,ENE,68,4.0,7.0,91,0.00,,,0.00,meteohub,2013-03-04 07:00:00,
2013-03-04 08:16:00,51.3,48.4,29.91,East,90,5.0,10.0,90,0.00,,,0.00,meteohub,2013-03-04 07:16:00,
2013-03-04 08:32:00,52.0,48.9,29.92,ENE,68,9.0,16.0,89,0.00,,,0.00,meteohub,2013-03-04 07:32:00,
2013-03-04 08:47:00,52.5,49.5,29.91,ENE,68,6.0,13.0,89,0.00,,,0.00,meteohub,2013-03-04 07:47:00,
2013-03-04 09:02:00,52.9,49.5,29.92,ENE,68,9.0,15.0,88,0.00,,,0.00,meteohub,2013-03-04 08:02:00,
2013-03-04 09:18:00,53.4,50.0,29.91,East,90,7.0,14.0,88,0.00,,,0.00,meteohub,2013-03-04 08:18:00,
2013-03-04 09:33:00,54.0,49.8,29.92,ENE,68,9.0,17.0,86,0.00,,,0.00,meteohub,2013-03-04 08:33:00,
2013-03-04 09:48:00,54.3,50.2,29.92,ENE,68,8.0,16.0,86,0.00,,,0.00,meteohub,2013-03-04 08:48:00,
2013-03-04 10:04:00,55.4,50.7,29.91,ENE,68,9.0,17.0,84,0.00,,,0.00,meteohub,2013-03-04 09:04:00,
2013-03-04 10:20:00,55.8,50.7,29.91,ENE,68,10.0,14.0,83,0.00,,,0.00,meteohub,2013-03-04 09:20:00,
2013-03-04 10:35:00,55.9,50.9,29.91,ENE,68,9.0,18.0,83,0.00,,,0.00,meteohub,2013-03-04 09:35:00,
2013-03-04 10:51:00,55.9,50.5,29.90,ENE,68,10.0,13.0,82,0.00,,,0.00,meteohub,2013-03-04 09:51:00,
2013-03-04 11:06:00,56.8,50.7,29.90,ENE,68,11.0,19.0,80,0.00,,,0.00,meteohub,2013-03-04 10:06:00,
2013-03-04 11:21:00,57.2,50.7,29.90,ENE,68,11.0,16.0,78,0.00,,,0.00,meteohub,2013-03-04 10:21:00,
2013-03-04 11:36:00,58.5,51.3,29.89,East,90,9.0,16.0,77,0.00,,,0.00,meteohub,2013-03-04 10:36:00,
2013-03-04 11:52:00,58.6,51.4,29.89,ENE,68,8.0,18.0,77,0.00,,,0.00,meteohub,2013-03-04 10:52:00,
2013-03-04 12:07:00,58.5,51.1,29.89,East,90,10.0,17.0,76,0.00,,,0.00,meteohub,2013-03-04 11:07:00,
2013-03-04 12:23:00,58.8,51.6,29.88,East,90,11.0,17.0,76,0.00,,,0.00,meteohub,2013-03-04 11:23:00,
2013-03-04 12:38:00,59.2,51.8,29.88,ENE,68,10.0,17.0,76,0.00,,,0.00,meteohub,2013-03-04 11:38:00,
2013-03-04 12:55:00,59.2,51.6,29.87,East,90,11.0,19.0,75,0.00,,,0.00,meteohub,2013-03-04 11:55:00,
2013-03-04 13:10:00,59.2,51.4,29.87,East,90,11.0,-999.0,75,0.00,,,0.00,meteohub,2013-03-04 12:10:00,
2013-03-04 13:25:00,59.0,52.0,29.86,East,90,8.0,15.0,77,0.00,,,0.00,meteohub,2013-03-04 12:25:00,
2013-03-04 13:40:00,59.2,51.3,29.86,East,90,9.0,14.0,75,0.00,,,0.00,meteohub,2013-03-04 12:40:00,
2013-03-04 13:56:00,58.6,51.6,29.85,ENE,68,7.0,14.0,77,0.00,,,0.00,meteohub,2013-03-04 12:56:00,
2013-03-04 14:11:00,58.8,51.4,29.85,ENE,68,8.0,10.0,76,0.00,,,0.00,meteohub,2013-03-04 13:11:00,
2013-03-04 14:27:00,59.2,51.8,29.83,East,90,9.0,15.0,76,0.00,,,0.00,meteohub,2013-03-04 13:27:00,
2013-03-04 14:43:00,58.8,51.6,29.83,East,90,9.0,15.0,77,0.00,,,0.00,meteohub,2013-03-04 13:43:00,
2013-03-04 14:58:00,58.3,51.4,29.82,East,90,6.0,15.0,78,0.00,,,0.00,meteohub,2013-03-04 13:58:00,
2013-03-04 15:13:00,57.9,51.1,29.82,East,90,11.0,18.0,78,0.00,,,0.00,meteohub,2013-03-04 14:13:00,
2013-03-04 15:29:00,57.7,51.1,29.82,East,90,9.0,15.0,78,0.00,,,0.00,meteohub,2013-03-04 14:29:00,
2013-03-04 15:45:00,57.4,51.3,29.81,East,90,8.0,18.0,80,0.00,,,0.00,meteohub,2013-03-04 14:45:00,
2013-03-04 16:00:00,57.0,51.1,29.81,East,90,9.0,14.0,80,0.00,,,0.00,meteohub,2013-03-04 15:00:00,
2013-03-04 16:15:00,56.8,51.3,29.81,East,90,10.0,15.0,81,0.00,,,0.00,meteohub,2013-03-04 15:15:00,
2013-03-04 16:30:00,56.7,51.3,29.81,East,90,6.0,9.0,82,0.00,,,0.00,meteohub,2013-03-04 15:30:00,
2013-03-04 16:45:00,55.9,51.1,29.81,East,90,9.0,15.0,83,0.00,,,0.00,meteohub,2013-03-04 15:45:00,
2013-03-04 17:01:00,55.9,51.3,29.80,East,90,6.0,10.0,84,0.00,,,0.00,meteohub,2013-03-04 16:01:00,
2013-03-04 17:16:00,55.6,51.1,29.80,East,90,7.0,10.0,85,0.00,,,0.00,meteohub,2013-03-04 16:16:00,
2013-03-04 17:31:00,55.2,51.1,29.79,ENE,68,10.0,16.0,86,0.00,,,0.00,meteohub,2013-03-04 16:31:00,
2013-03-04 17:47:00,55.0,51.3,29.79,ENE,68,5.0,10.0,87,0.00,,,0.00,meteohub,2013-03-04 16:47:00,
2013-03-04 18:02:00,54.9,51.1,29.78,East,90,6.0,10.0,87,0.00,,,0.00,meteohub,2013-03-04 17:02:00,
2013-03-04 18:18:00,54.7,50.9,29.78,East,90,7.0,11.0,87,0.00,,,0.00,meteohub,2013-03-04 17:18:00,
2013-03-04 18:33:00,54.3,50.9,29.78,East,90,7.0,18.0,88,0.00,,,0.00,meteohub,2013-03-04 17:33:00,
2013-03-04 18:48:00,54.1,50.7,29.78,East,90,11.0,16.0,88,0.00,,,0.00,meteohub,2013-03-04 17:48:00,
2013-03-04 19:04:00,54.1,50.7,29.78,East,90,9.0,17.0,88,0.00,,,0.00,meteohub,2013-03-04 18:04:00,
2013-03-04 19:19:00,54.1,50.9,29.79,ESE,113,9.0,14.0,88,0.00,,,0.00,meteohub,2013-03-04 18:19:00,
2013-03-04 19:35:00,54.0,50.7,29.78,East,90,10.0,18.0,89,0.00,,,0.00,meteohub,2013-03-04 18:35:00,
2013-03-04 19:50:00,54.0,50.7,29.78,East,90,10.0,15.0,89,0.00,,,0.00,meteohub,2013-03-04 18:50:00,
2013-03-04 20:05:00,54.0,50.7,29.79,ESE,113,10.0,19.0,88,0.00,,,0.00,meteohub,2013-03-04 19:05:00,
2013-03-04 20:21:00,54.0,50.5,29.79,East,90,9.0,17.0,88,0.00,,,0.00,meteohub,2013-03-04 19:21:00,
2013-03-04 20:36:00,54.1,50.4,29.79,ESE,113,9.0,14.0,87,0.00,,,0.00,meteohub,2013-03-04 19:36:00,
2013-03-04 20:51:00,54.1,50.4,29.79,ESE,113,6.0,11.0,87,0.00,,,0.00,meteohub,2013-03-04 19:51:00,
2013-03-04 21:07:00,54.3,50.2,29.79,ESE,113,7.0,-999.0,86,0.00,,,0.00,meteohub,2013-03-04 20:07:00,
2013-03-04 21:22:00,54.7,50.4,29.79,East,90,6.0,11.0,85,0.00,,,0.00,meteohub,2013-03-04 20:22:00,
2013-03-04 21:37:00,54.7,50.4,29.79,ENE,68,3.0,10.0,85,0.00,,,0.00,meteohub,2013-03-04 20:37:00,
2013-03-04 21:53:00,53.2,50.7,29.78,East,90,7.0,11.0,91,0.00,,,0.00,meteohub,2013-03-04 20:53:00,
2013-03-04 22:08:00,53.1,50.7,29.77,ENE,68,7.0,13.0,92,0.00,,,0.00,meteohub,2013-03-04 21:08:00,
2013-03-04 22:23:00,52.9,50.9,29.76,East,90,9.0,14.0,93,0.00,,,0.00,meteohub,2013-03-04 21:23:00,
2013-03-04 22:38:00,52.9,50.9,29.76,ENE,68,7.0,12.0,93,0.00,,,0.00,meteohub,2013-03-04 21:38:00,
2013-03-04 22:54:00,52.9,51.3,29.75,ENE,68,8.0,14.0,94,0.01,,,0.01,meteohub,2013-03-04 21:54:00,
2013-03-04 23:09:00,52.9,51.3,29.75,East,90,8.0,13.0,94,0.02,,,0.02,meteohub,2013-03-04 22:09:00,
2013-03-04 23:24:00,52.9,51.3,29.74,East,90,8.0,15.0,94,0.02,,,0.02,meteohub,2013-03-04 22:24:00,
2013-03-04 23:40:00,52.7,51.1,29.73,East,90,10.0,14.0,94,0.01,,,0.02,meteohub,2013-03-04 22:40:00,
2013-03-04 23:56:00,52.7,51.1,29.72,ENE,68,9.0,15.0,94,0.00,,,0.02,meteohub,2013-03-04 22:56:00,